Time;durP1;ratioP1;P1;durP2;ratioP2;P2;SDS_P1;SDS_P2;PMS_P1;PMS_P2;Temp;Humidity;BMP_temperature;BMP_pressure;BME280_temperature;BME280_humidity;BME280_pressure;Samples;Min_cycle;Max_cycle;Signal;HPM_P1;HPM_P2
2022/09/07 00:00:31;;;;;;;13.57;8.10;;;19.70;90.60;;;;;;4994692;28;20046;-62
2022/09/07 00:02:57;;;;;;;13.48;8.23;;;19.60;90.80;;;;;;4969500;28;20050;-61
2022/09/07 00:05:22;;;;;;;12.07;7.90;;;19.60;91.00;;;;;;4996278;28;20053;-62
2022/09/07 00:07:48;;;;;;;12.02;7.80;;;19.50;90.90;;;;;;4976817;28;20100;-62
2022/09/07 00:10:14;;;;;;;11.30;7.90;;;19.50;91.30;;;;;;4977744;28;20409;-60
2022/09/07 00:12:40;;;;;;;10.35;8.35;;;19.40;91.40;;;;;;4994623;28;20053;-62
2022/09/07 00:15:08;;;;;;;15.02;7.90;;;19.30;91.60;;;;;;4981109;28;22404;-62
2022/09/07 00:17:34;;;;;;;12.00;8.10;;;19.30;91.80;;;;;;4993282;28;20053;-61
2022/09/07 00:20:01;;;;;;;11.10;7.97;;;19.20;91.90;;;;;;4977350;28;20605;-61
2022/09/07 00:22:27;;;;;;;11.63;8.35;;;19.20;92.00;;;;;;4992494;28;20054;-61
2022/09/07 00:24:53;;;;;;;11.90;7.80;;;19.20;92.10;;;;;;4995610;28;20088;-61
2022/09/07 00:27:19;;;;;;;12.80;8.30;;;19.10;92.30;;;;;;4953641;28;20048;-61
2022/09/07 00:29:45;;;;;;;8.15;7.35;;;19.10;92.30;;;;;;4967554;28;20423;-63
2022/09/07 00:32:11;;;;;;;9.88;8.18;;;19.10;92.50;;;;;;4984528;28;20213;-61
2022/09/07 00:34:36;;;;;;;13.57;8.00;;;19.00;92.60;;;;;;4992582;28;20183;-61
2022/09/07 00:37:02;;;;;;;13.52;8.48;;;19.00;92.70;;;;;;4997740;28;20135;-62
2022/09/07 00:39:28;;;;;;;12.00;8.52;;;19.00;93.00;;;;;;4973638;28;20050;-61
2022/09/07 00:41:54;;;;;;;12.45;8.52;;;18.90;93.10;;;;;;5006594;28;20052;-61
2022/09/07 00:44:41;;;;;;;13.63;8.52;;;18.90;93.20;;;;;;4994335;28;20045;-61
2022/09/07 00:47:18;;;;;;;13.93;8.05;;;18.90;93.00;;;;;;4982009;28;20038;-62
2022/09/07 00:49:48;;;;;;;10.23;7.53;;;18.90;93.10;;;;;;4989254;28;20041;-62
2022/09/07 00:52:17;;;;;;;13.40;8.70;;;18.90;93.20;;;;;;4981336;28;20057;-62
2022/09/07 00:54:48;;;;;;;13.93;8.80;;;18.90;93.30;;;;;;4997875;28;20107;-62
2022/09/07 00:57:14;;;;;;;9.35;8.30;;;18.90;93.40;;;;;;4980638;28;20045;-62
2022/09/07 00:59:49;;;;;;;11.60;8.02;;;18.90;93.80;;;;;;4986118;28;20108;-61
2022/09/07 01:02:16;;;;;;;10.65;8.60;;;18.80;93.70;;;;;;4994417;28;20879;-63
2022/09/07 01:04:51;;;;;;;12.23;8.38;;;18.80;93.90;;;;;;4992128;28;20037;-63
2022/09/07 01:07:18;;;;;;;10.02;8.27;;;18.80;94.00;;;;;;4978762;28;20143;-63
2022/09/07 01:09:46;;;;;;;14.38;9.07;;;18.70;94.20;;;;;;4995224;28;20052;-62
2022/09/07 01:12:12;;;;;;;9.82;8.60;;;18.70;94.30;;;;;;4992946;28;20111;-61
2022/09/07 01:14:44;;;;;;;11.05;9.00;;;18.70;94.40;;;;;;4991735;28;21237;-61
2022/09/07 01:17:31;;;;;;;14.52;9.30;;;18.60;94.50;;;;;;4995807;28;22279;-61
2022/09/07 01:20:00;;;;;;;11.35;8.63;;;18.60;94.60;;;;;;4967323;28;20053;-60
2022/09/07 01:22:35;;;;;;;11.52;9.10;;;18.50;94.90;;;;;;4994907;28;20049;-62
2022/09/07 01:25:13;;;;;;;17.02;10.20;;;18.50;95.10;;;;;;4964957;28;20053;-62
2022/09/07 01:28:19;;;;;;;10.18;9.07;;;18.50;95.30;;;;;;4992986;28;20143;-61
2022/09/07 01:30:54;;;;;;;13.98;9.55;;;18.40;95.40;;;;;;4991978;28;20046;-62
2022/09/07 01:33:36;;;;;;;18.98;10.40;;;18.40;95.50;;;;;;4980517;28;20463;-62
2022/09/07 01:36:17;;;;;;;14.07;10.00;;;18.40;95.60;;;;;;4993871;28;20072;-62
2022/09/07 01:38:51;;;;;;;21.35;11.45;;;18.40;95.90;;;;;;4993572;28;20069;-60
2022/09/07 01:41:39;;;;;;;26.17;13.43;;;18.40;96.70;;;;;;4981888;28;20045;-60
2022/09/07 01:44:18;;;;;;;18.55;12.68;;;18.30;97.50;;;;;;4973232;28;20045;-62
2022/09/07 01:47:08;;;;;;;18.73;12.45;;;18.20;98.10;;;;;;4993606;28;20060;-62
2022/09/07 01:49:41;;;;;;;15.30;10.68;;;18.10;98.90;;;;;;4987410;28;20192;-62
2022/09/07 01:52:19;;;;;;;19.60;10.27;;;18.10;99.60;;;;;;4971303;28;20056;-60
2022/09/07 01:54:50;;;;;;;11.65;7.53;;;18.00;99.90;;;;;;4971522;28;20057;-62
2022/09/07 01:57:27;;;;;;;13.40;9.50;;;18.00;99.90;;;;;;4993880;28;20127;-62
2022/09/07 02:00:17;;;;;;;12.15;9.82;;;18.00;99.90;;;;;;4983427;28;20054;-62
2022/09/07 02:03:08;;;;;;;12.10;8.40;;;18.00;99.90;;;;;;4962104;28;20065;-62
2022/09/07 02:05:59;;;;;;;10.63;7.40;;;18.00;99.90;;;;;;4990945;28;20484;-61
2022/09/07 02:08:32;;;;;;;12.75;9.52;;;18.00;99.90;;;;;;4977541;28;20164;-61
2022/09/07 02:11:17;;;;;;;13.80;10.07;;;18.00;99.90;;;;;;4966149;28;20057;-62
2022/09/07 02:13:55;;;;;;;12.70;10.07;;;18.00;99.90;;;;;;4992600;28;20504;-60
2022/09/07 02:16:26;;;;;;;14.57;9.85;;;18.00;99.90;;;;;;4990991;28;20041;-62
2022/09/07 02:19:02;;;;;;;13.48;9.02;;;18.00;99.90;;;;;;4990237;28;20093;-62
2022/09/07 02:21:33;;;;;;;11.35;8.38;;;18.10;99.90;;;;;;4995387;28;20046;-61
2022/09/07 02:24:13;;;;;;;9.35;7.00;;;18.10;99.90;;;;;;4994224;28;20084;-60
2022/09/07 02:26:40;;;;;;;10.13;6.82;;;18.10;99.90;;;;;;4975883;28;20813;-59
2022/09/07 02:29:06;;;;;;;12.23;6.93;;;18.10;99.90;;;;;;4990239;28;20077;-60
2022/09/07 02:31:32;;;;;;;9.80;6.30;;;18.10;99.90;;;;;;4935909;28;20164;-60
2022/09/07 02:34:00;;;;;;;10.73;6.55;;;18.10;99.90;;;;;;4984782;28;20046;-62
2022/09/07 02:36:30;;;;;;;8.35;6.72;;;18.00;99.90;;;;;;4983368;28;20065;-62
2022/09/07 02:38:55;;;;;;;9.98;6.60;;;18.00;99.90;;;;;;4974396;28;20488;-61
2022/09/07 02:41:40;;;;;;;9.10;6.00;;;18.00;99.90;;;;;;4966533;28;20046;-60
2022/09/07 02:44:16;;;;;;;9.40;6.00;;;17.90;99.90;;;;;;4993113;28;20049;-60
2022/09/07 02:46:56;;;;;;;9.05;5.60;;;17.90;99.90;;;;;;4974189;28;20775;-61
2022/09/07 02:49:48;;;;;;;9.05;5.63;;;18.00;99.90;;;;;;4971667;28;21650;-61
2022/09/07 02:52:42;;;;;;;6.32;5.00;;;18.00;99.90;;;;;;4941652;28;20107;-59
2022/09/07 02:55:36;;;;;;;7.43;5.63;;;17.90;99.90;;;;;;4982116;28;20049;-60
2022/09/07 02:58:27;;;;;;;7.15;5.72;;;17.90;99.90;;;;;;4954585;28;20054;-61
2022/09/07 03:01:14;;;;;;;11.73;6.40;;;17.80;99.90;;;;;;4991908;28;20096;-62
2022/09/07 03:04:05;;;;;;;9.73;5.70;;;17.80;99.90;;;;;;4968501;28;20583;-59
2022/09/07 03:06:39;;;;;;;8.10;6.15;;;17.80;99.90;;;;;;4990374;28;20053;-61
2022/09/07 03:09:20;;;;;;;6.97;6.28;;;17.80;99.90;;;;;;4991622;28;20116;-60
2022/09/07 03:11:46;;;;;;;8.75;6.45;;;17.70;99.90;;;;;;4992895;28;20042;-59
2022/09/07 03:14:18;;;;;;;7.93;6.10;;;17.70;99.90;;;;;;4990731;28;20057;-60
2022/09/07 03:16:49;;;;;;;6.88;6.03;;;17.70;99.90;;;;;;4990871;28;20049;-61
2022/09/07 03:19:15;;;;;;;6.45;5.85;;;17.70;99.90;;;;;;4967109;28;20415;-61
2022/09/07 03:21:41;;;;;;;8.13;6.47;;;17.70;99.90;;;;;;4976787;28;20069;-59
2022/09/07 03:24:07;;;;;;;8.13;6.05;;;17.70;99.90;;;;;;4974701;28;20137;-59
2022/09/07 03:26:34;;;;;;;7.97;6.38;;;17.70;99.90;;;;;;4992562;28;20151;-60
2022/09/07 03:28:59;;;;;;;8.65;6.25;;;17.70;99.90;;;;;;4989155;28;20042;-61
2022/09/07 03:31:25;;;;;;;6.93;6.15;;;17.70;99.90;;;;;;4989480;28;20103;-61
2022/09/07 03:33:51;;;;;;;6.78;5.80;;;17.70;99.90;;;;;;4980421;28;20056;-61
2022/09/07 03:36:17;;;;;;;8.00;6.05;;;17.70;99.90;;;;;;4995774;28;20093;-59
2022/09/07 03:38:43;;;;;;;7.32;5.75;;;17.70;99.90;;;;;;4995358;28;20437;-60
2022/09/07 03:41:08;;;;;;;6.90;5.30;;;17.70;99.90;;;;;;4970231;28;20061;-60
2022/09/07 03:43:34;;;;;;;5.38;4.60;;;17.70;99.90;;;;;;4997050;28;20156;-59
2022/09/07 03:46:03;;;;;;;7.43;5.35;;;17.70;99.90;;;;;;4998209;28;20109;-59
2022/09/07 03:48:30;;;;;;;8.40;5.43;;;17.70;99.90;;;;;;4997511;28;20048;-61
2022/09/07 03:50:58;;;;;;;6.32;5.38;;;17.70;99.90;;;;;;4993518;28;20169;-60
2022/09/07 03:53:24;;;;;;;7.07;5.63;;;17.60;99.90;;;;;;4996930;28;20049;-60
2022/09/07 03:56:02;;;;;;;8.93;5.70;;;17.70;99.90;;;;;;4972874;28;20049;-59
2022/09/07 03:58:29;;;;;;;7.05;5.18;;;17.70;99.90;;;;;;4995623;28;20050;-61
2022/09/07 04:00:55;;;;;;;6.00;4.95;;;17.60;99.90;;;;;;4967283;28;20535;-60
2022/09/07 04:03:21;;;;;;;6.32;5.05;;;17.60;99.90;;;;;;4994751;28;20046;-62
2022/09/07 04:05:47;;;;;;;7.15;5.18;;;17.50;99.90;;;;;;4967857;28;20064;-59
2022/09/07 04:08:13;;;;;;;8.45;5.63;;;17.50;99.90;;;;;;4993051;28;20389;-60
2022/09/07 04:10:39;;;;;;;6.70;5.30;;;17.50;99.90;;;;;;4997428;28;20514;-61
2022/09/07 04:13:06;;;;;;;7.60;5.07;;;17.50;99.90;;;;;;5004555;28;20081;-60
2022/09/07 04:15:33;;;;;;;6.80;5.07;;;17.40;99.90;;;;;;5007582;28;20806;-60
2022/09/07 04:18:00;;;;;;;9.13;5.80;;;17.40;99.90;;;;;;5005221;28;20128;-60
2022/09/07 04:20:26;;;;;;;7.72;6.22;;;17.40;99.90;;;;;;5000241;28;20448;-61
2022/09/07 04:22:51;;;;;;;9.90;6.10;;;17.40;99.90;;;;;;4964311;28;20096;-61
2022/09/07 04:25:18;;;;;;;7.53;5.60;;;17.40;99.90;;;;;;4991421;28;20164;-61
2022/09/07 04:27:44;;;;;;;6.75;6.00;;;17.40;99.90;;;;;;4990899;28;20083;-61
2022/09/07 04:30:10;;;;;;;10.27;6.45;;;17.40;99.90;;;;;;4992876;28;20401;-60
2022/09/07 04:39:34;;;;;;;9.52;6.38;;;17.20;99.90;;;;;;5022100;28;20414;-62
2022/09/07 04:42:00;;;;;;;9.25;6.68;;;17.20;99.90;;;;;;5004417;28;20059;-63
2022/09/07 04:44:26;;;;;;;7.22;6.50;;;17.20;99.90;;;;;;5019836;28;21919;-62
2022/09/07 04:46:51;;;;;;;7.43;6.03;;;17.30;99.90;;;;;;5021724;28;20119;-63
2022/09/07 04:49:19;;;;;;;10.35;7.10;;;17.20;99.90;;;;;;5020853;28;20045;-63
2022/09/07 04:51:44;;;;;;;9.30;7.60;;;17.20;99.90;;;;;;5024725;28;20521;-63
2022/09/07 04:54:10;;;;;;;10.45;7.82;;;17.20;99.90;;;;;;5003900;28;20045;-62
2022/09/07 04:56:36;;;;;;;11.30;8.00;;;17.20;99.90;;;;;;5024791;28;20489;-62
2022/09/07 04:59:03;;;;;;;16.63;8.98;;;17.20;99.90;;;;;;5020050;28;20350;-63
2022/09/07 05:01:29;;;;;;;14.57;9.25;;;17.20;99.90;;;;;;5011790;28;20049;-62
2022/09/07 05:03:55;;;;;;;9.55;8.55;;;17.10;99.90;;;;;;5009488;28;20049;-62
2022/09/07 05:06:22;;;;;;;14.85;8.82;;;17.10;99.90;;;;;;5005432;28;20060;-63
2022/09/07 05:08:50;;;;;;;12.73;9.48;;;17.10;99.90;;;;;;5020910;28;20073;-62
2022/09/07 05:11:18;;;;;;;16.77;9.90;;;17.10;99.90;;;;;;5020873;28;20045;-62
2022/09/07 05:13:44;;;;;;;16.90;9.68;;;17.10;99.90;;;;;;5002350;28;20053;-63
2022/09/07 05:16:16;;;;;;;14.77;9.80;;;17.10;99.90;;;;;;4999467;28;20049;-62
2022/09/07 05:18:42;;;;;;;13.38;11.18;;;17.10;99.90;;;;;;4995560;28;20056;-63
2022/09/07 05:21:14;;;;;;;13.77;11.80;;;17.10;99.90;;;;;;5018057;28;20509;-62
2022/09/07 05:23:41;;;;;;;14.23;11.80;;;17.20;99.90;;;;;;5014604;28;20453;-62
2022/09/07 05:26:07;;;;;;;17.27;13.23;;;17.20;99.90;;;;;;5015154;28;20060;-63
2022/09/07 05:28:34;;;;;;;18.10;12.77;;;17.20;99.90;;;;;;5004913;28;20060;-62
2022/09/07 05:31:09;;;;;;;15.98;13.05;;;17.20;99.90;;;;;;5017678;28;20409;-63
2022/09/07 05:33:36;;;;;;;18.00;14.57;;;17.20;99.90;;;;;;5016219;28;20076;-63
2022/09/07 05:36:03;;;;;;;21.92;15.93;;;17.30;99.90;;;;;;4998913;28;20049;-63
2022/09/07 05:38:29;;;;;;;18.23;15.75;;;17.30;99.90;;;;;;5015695;28;21720;-63
2022/09/07 05:40:55;;;;;;;16.10;14.40;;;17.30;99.90;;;;;;4995812;28;20450;-63
2022/09/07 05:43:21;;;;;;;16.67;14.82;;;17.30;99.90;;;;;;4996067;28;20045;-62
2022/09/07 05:45:47;;;;;;;19.50;15.65;;;17.30;99.90;;;;;;5016867;28;22210;-63
2022/09/07 05:48:13;;;;;;;18.27;14.40;;;17.40;99.90;;;;;;5015606;28;20683;-63
2022/09/07 05:50:48;;;;;;;19.20;16.27;;;17.40;99.90;;;;;;5020395;28;20075;-63
2022/09/07 05:53:13;;;;;;;22.05;16.23;;;17.40;99.90;;;;;;5023420;28;20143;-63
2022/09/07 05:55:39;;;;;;;20.35;15.50;;;17.40;99.90;;;;;;4984608;28;20166;-63
2022/09/07 05:58:05;;;;;;;17.27;15.20;;;17.40;99.90;;;;;;5015397;28;20041;-63
2022/09/07 06:00:31;;;;;;;19.50;15.48;;;17.50;99.90;;;;;;5003782;28;20041;-63
2022/09/07 06:02:57;;;;;;;22.80;16.63;;;17.50;99.90;;;;;;5017181;28;20751;-63
2022/09/07 06:05:22;;;;;;;21.33;17.10;;;17.50;99.90;;;;;;4988318;28;20061;-63
2022/09/07 06:07:48;;;;;;;19.08;16.20;;;17.60;99.90;;;;;;5015167;28;20180;-62
2022/09/07 06:10:14;;;;;;;19.98;15.38;;;17.60;99.90;;;;;;5017962;28;20060;-63
2022/09/07 06:12:45;;;;;;;22.75;16.77;;;17.60;99.90;;;;;;5004111;28;20084;-62
2022/09/07 06:15:11;;;;;;;22.55;17.10;;;17.70;99.90;;;;;;5001981;28;20049;-63
2022/09/07 06:17:37;;;;;;;20.90;15.43;;;17.70;99.90;;;;;;5018085;28;20635;-63
2022/09/07 06:20:05;;;;;;;23.48;16.45;;;17.70;99.90;;;;;;5001092;28;20092;-62
2022/09/07 06:22:33;;;;;;;21.40;15.80;;;17.70;99.90;;;;;;5003354;28;20044;-63
2022/09/07 06:24:59;;;;;;;20.35;17.70;;;17.80;99.90;;;;;;5002856;28;20095;-63
2022/09/07 06:27:25;;;;;;;23.48;18.02;;;17.80;99.90;;;;;;5022729;28;20045;-62
2022/09/07 06:29:50;;;;;;;23.30;18.08;;;17.80;99.90;;;;;;5001746;28;20426;-63
2022/09/07 06:32:16;;;;;;;26.40;17.95;;;17.90;99.90;;;;;;5020008;28;20901;-63
2022/09/07 06:34:42;;;;;;;25.15;18.00;;;17.90;99.90;;;;;;5018547;28;20045;-63
2022/09/07 06:37:08;;;;;;;22.02;16.95;;;17.90;99.90;;;;;;5005484;28;20617;-63
2022/09/07 06:39:35;;;;;;;17.88;15.70;;;17.90;99.90;;;;;;4971011;28;20057;-63
2022/09/07 06:42:02;;;;;;;23.92;17.80;;;17.90;99.90;;;;;;4970087;28;20050;-63
2022/09/07 06:44:29;;;;;;;21.25;17.80;;;17.90;99.90;;;;;;4976328;28;20400;-63
2022/09/07 06:46:55;;;;;;;24.90;17.30;;;17.80;99.90;;;;;;4980272;28;20121;-63
2022/09/07 06:49:22;;;;;;;22.85;18.60;;;17.80;99.90;;;;;;4989568;28;20674;-63
2022/09/07 06:51:48;;;;;;;25.02;17.83;;;17.90;99.90;;;;;;4986772;28;20042;-63
2022/09/07 06:54:14;;;;;;;24.45;18.27;;;17.80;99.90;;;;;;4978706;28;20130;-63
2022/09/07 06:56:40;;;;;;;20.42;17.88;;;17.80;99.90;;;;;;4976897;28;20050;-63
2022/09/07 06:59:06;;;;;;;20.67;16.42;;;17.90;99.90;;;;;;4977966;28;20053;-63
2022/09/07 07:01:32;;;;;;;23.08;17.13;;;17.90;99.90;;;;;;4981186;28;20053;-63
2022/09/07 07:04:00;;;;;;;20.02;17.13;;;17.90;99.90;;;;;;4979731;28;20165;-63
2022/09/07 07:06:37;;;;;;;21.02;17.30;;;17.90;99.90;;;;;;4978018;28;20052;-63
2022/09/07 07:09:05;;;;;;;21.52;16.35;;;17.90;99.90;;;;;;4981514;28;20392;-63
2022/09/07 07:11:31;;;;;;;24.63;17.75;;;17.90;99.90;;;;;;4983705;28;20045;-63
2022/09/07 07:13:57;;;;;;;23.80;19.85;;;17.90;99.90;;;;;;4980968;28;20186;-62
2022/09/07 07:16:23;;;;;;;26.13;19.63;;;18.00;99.90;;;;;;4984701;28;20049;-63
2022/09/07 07:18:53;;;;;;;29.65;20.15;;;18.00;99.90;;;;;;4986743;28;20092;-64
2022/09/07 07:21:19;;;;;;;24.83;19.77;;;18.00;99.90;;;;;;4980572;28;20050;-63
2022/09/07 07:23:49;;;;;;;23.02;19.13;;;18.00;99.90;;;;;;4998928;28;20057;-63
2022/09/07 07:26:20;;;;;;;26.95;20.52;;;18.00;99.90;;;;;;4979840;28;20045;-63
2022/09/07 07:28:50;;;;;;;23.98;20.35;;;18.00;99.90;;;;;;4987269;28;20078;-63
2022/09/07 07:31:19;;;;;;;26.65;21.35;;;18.10;99.90;;;;;;4981429;28;20356;-63
2022/09/07 07:33:47;;;;;;;26.33;20.80;;;18.10;99.90;;;;;;4988947;28;20125;-63
2022/09/07 07:36:17;;;;;;;25.88;20.90;;;18.20;99.90;;;;;;4972287;28;20065;-62
2022/09/07 07:38:45;;;;;;;26.67;21.17;;;18.20;99.90;;;;;;5001718;28;20052;-63
2022/09/07 07:41:12;;;;;;;27.60;19.70;;;18.20;99.90;;;;;;5019868;28;20095;-63
2022/09/07 07:43:38;;;;;;;26.17;19.85;;;18.20;99.90;;;;;;5001937;28;20127;-63
2022/09/07 07:46:05;;;;;;;27.67;20.77;;;18.20;99.90;;;;;;5021759;28;20453;-63
2022/09/07 07:48:33;;;;;;;23.92;19.88;;;18.20;99.90;;;;;;5020946;28;20041;-63
2022/09/07 07:51:05;;;;;;;24.92;20.98;;;18.20;99.90;;;;;;5020407;28;20051;-63
2022/09/07 07:53:33;;;;;;;27.25;21.17;;;18.20;99.90;;;;;;5021553;28;20484;-63
2022/09/07 07:55:59;;;;;;;23.75;20.05;;;18.20;99.90;;;;;;5020945;28;20160;-63
2022/09/07 07:58:26;;;;;;;28.80;20.90;;;18.30;99.90;;;;;;5021521;28;20386;-63
2022/09/07 08:00:53;;;;;;;33.63;22.40;;;18.20;99.90;;;;;;5018055;28;20087;-63
2022/09/07 08:03:23;;;;;;;25.58;20.48;;;18.30;99.90;;;;;;5018114;28;20095;-63
2022/09/07 08:05:49;;;;;;;25.13;20.92;;;18.40;99.90;;;;;;5002866;28;20130;-63
2022/09/07 08:08:15;;;;;;;24.10;19.88;;;18.40;99.90;;;;;;4994186;28;20395;-63
2022/09/07 08:10:41;;;;;;;23.27;19.63;;;18.40;99.90;;;;;;5010244;28;20052;-63
2022/09/07 08:13:07;;;;;;;25.33;21.23;;;18.50;99.90;;;;;;5022191;28;20049;-64
2022/09/07 08:15:43;;;;;;;26.20;21.65;;;18.50;99.90;;;;;;4999798;28;20083;-63
2022/09/07 08:18:13;;;;;;;31.52;21.67;;;18.60;99.90;;;;;;5005900;28;20064;-63
2022/09/07 08:20:39;;;;;;;28.05;21.33;;;18.70;99.90;;;;;;5019367;28;20041;-63
2022/09/07 08:23:09;;;;;;;27.65;19.35;;;18.70;99.90;;;;;;5004210;28;20065;-63
2022/09/07 08:25:35;;;;;;;23.85;20.33;;;18.80;99.90;;;;;;5004315;28;20453;-63
2022/09/07 08:28:01;;;;;;;26.92;19.88;;;18.80;99.90;;;;;;5018943;28;20056;-63
2022/09/07 08:30:28;;;;;;;24.25;20.25;;;18.90;99.90;;;;;;4985259;28;20052;-63
2022/09/07 08:32:54;;;;;;;27.27;21.23;;;19.00;99.90;;;;;;5001054;28;20458;-63
2022/09/07 08:35:19;;;;;;;24.98;20.02;;;19.10;99.90;;;;;;5021959;28;20057;-63
2022/09/07 08:37:45;;;;;;;24.40;19.85;;;19.20;99.90;;;;;;5021309;28;20037;-63
2022/09/07 08:40:18;;;;;;;25.38;19.67;;;19.30;99.90;;;;;;4993194;28;20132;-63
2022/09/07 08:43:02;;;;;;;;;;;19.30;99.90;;;;;;5018919;28;20045;-63
2022/09/07 08:45:35;;;;;;;22.90;19.52;;;19.40;99.90;;;;;;5020103;28;19932;-63
2022/09/07 08:48:04;;;;;;;28.02;19.63;;;19.30;99.90;;;;;;5021987;28;20157;-63
2022/09/07 08:50:52;;;;;;;25.42;19.63;;;19.30;99.90;;;;;;5021638;28;20045;-63
2022/09/07 08:53:19;;;;;;;24.40;20.27;;;19.30;99.90;;;;;;5019635;28;20577;-63
2022/09/07 08:56:01;;;;;;;22.45;19.80;;;19.30;99.90;;;;;;5010211;28;20049;-63
2022/09/07 08:58:46;;;;;;;29.85;21.13;;;19.20;99.90;;;;;;5019693;28;20604;-64
2022/09/07 09:01:25;;;;;;;28.25;20.88;;;19.20;99.90;;;;;;5007729;28;20065;-63
2022/09/07 09:03:51;;;;;;;23.58;20.15;;;19.10;99.90;;;;;;5001264;28;20049;-63
2022/09/07 09:06:51;;;;;;;25.77;20.00;;;19.20;99.90;;;;;;5024435;28;20053;-63
2022/09/07 09:09:44;;;;;;;25.77;20.30;;;19.20;99.90;;;;;;5021544;28;20513;-63
2022/09/07 09:12:16;;;;;;;27.33;21.48;;;19.20;99.90;;;;;;5022361;28;20064;-63
2022/09/07 09:15:16;;;;;;;24.67;21.20;;;19.20;99.90;;;;;;5021137;28;20080;-63
2022/09/07 09:17:49;;;;;;;26.65;20.88;;;19.30;99.90;;;;;;5005811;28;20054;-63
2022/09/07 09:20:24;;;;;;;24.60;20.63;;;19.40;99.90;;;;;;5025879;28;20478;-63
2022/09/07 09:22:56;;;;;;;23.08;19.70;;;19.50;99.90;;;;;;5023559;28;20068;-63
2022/09/07 09:25:32;;;;;;;27.80;20.60;;;19.70;99.90;;;;;;4988576;28;20083;-63
2022/09/07 09:27:58;;;;;;;24.88;19.52;;;19.90;99.90;;;;;;5022703;28;20672;-63
2022/09/07 09:30:24;;;;;;;22.05;19.52;;;20.00;99.90;;;;;;5019401;28;20047;-63
2022/09/07 09:33:10;;;;;;;25.20;19.63;;;20.10;99.90;;;;;;5001843;28;20053;-63
2022/09/07 09:35:38;;;;;;;24.83;18.38;;;20.10;99.90;;;;;;5017509;28;20178;-63
2022/09/07 09:38:04;;;;;;;25.02;18.02;;;20.30;99.90;;;;;;5022272;28;20171;-63
2022/09/07 09:40:34;;;;;;;20.48;17.98;;;20.30;99.90;;;;;;5001014;28;20451;-63
2022/09/07 09:43:19;;;;;;;21.38;18.95;;;20.40;99.90;;;;;;5028537;28;20463;-64
2022/09/07 09:45:48;;;;;;;22.88;17.42;;;20.60;99.90;;;;;;5017718;28;20056;-63
2022/09/07 09:48:20;;;;;;;22.30;17.27;;;20.70;99.90;;;;;;5019280;28;20095;-64
2022/09/07 09:50:50;;;;;;;20.88;17.65;;;20.70;99.90;;;;;;5032967;28;20446;-63
2022/09/07 09:53:51;;;;;;;21.38;17.55;;;20.70;99.90;;;;;;5003633;28;20076;-63
2022/09/07 09:56:17;;;;;;;22.60;18.25;;;20.70;99.90;;;;;;5031647;28;20148;-63
2022/09/07 09:58:46;;;;;;;22.23;17.95;;;20.60;99.90;;;;;;5021270;28;20049;-63
2022/09/07 10:01:24;;;;;;;20.17;17.50;;;20.60;99.90;;;;;;5008713;28;20068;-63
2022/09/07 10:03:50;;;;;;;19.83;16.98;;;20.80;99.90;;;;;;5023171;28;20047;-63
2022/09/07 10:06:18;;;;;;;17.77;15.25;;;21.10;99.90;;;;;;5022199;28;20049;-64
2022/09/07 10:09:00;;;;;;;19.35;14.88;;;21.40;99.90;;;;;;5017736;28;20041;-63
2022/09/07 10:11:46;;;;;;;19.13;14.35;;;21.70;99.90;;;;;;5017684;28;20057;-63
2022/09/07 10:14:35;;;;;;;13.65;11.82;;;21.90;99.90;;;;;;5002219;28;20052;-64
2022/09/07 10:17:11;;;;;;;12.90;10.80;;;22.00;99.90;;;;;;5025136;28;20053;-64
2022/09/07 10:19:40;;;;;;;14.35;11.45;;;22.10;99.90;;;;;;5023348;28;20942;-63
2022/09/07 10:22:22;;;;;;;12.23;10.95;;;22.00;99.90;;;;;;5028506;28;20086;-63
2022/09/07 10:24:49;;;;;;;12.18;10.50;;;22.00;99.90;;;;;;5019535;28;20076;-63
2022/09/07 10:27:36;;;;;;;12.05;9.70;;;22.10;99.90;;;;;;5001227;28;20040;-64
2022/09/07 10:30:12;;;;;;;14.07;10.90;;;22.50;99.90;;;;;;5019345;28;20637;-64
2022/09/07 10:33:02;;;;;;;10.73;9.63;;;22.80;99.90;;;;;;5014500;28;20040;-64
2022/09/07 10:35:49;;;;;;;8.75;7.85;;;23.10;99.90;;;;;;5011610;28;20064;-64
2022/09/07 10:38:21;;;;;;;11.70;7.88;;;23.20;99.90;;;;;;5001170;28;20060;-64
2022/09/07 10:41:06;;;;;;;8.07;6.93;;;23.30;99.90;;;;;;5000822;28;20061;-64
2022/09/07 10:43:44;;;;;;;9.35;7.72;;;23.40;99.90;;;;;;5017508;28;20135;-63
2022/09/07 10:46:26;;;;;;;7.93;7.15;;;23.40;99.90;;;;;;5013476;28;20059;-64
2022/09/07 10:49:09;;;;;;;7.90;6.80;;;23.20;99.90;;;;;;5005916;28;20046;-64
2022/09/07 10:51:39;;;;;;;6.35;5.32;;;23.20;99.90;;;;;;4984794;28;20103;-63
2022/09/07 10:54:32;;;;;;;6.90;5.57;;;23.20;99.90;;;;;;5004100;28;20077;-64
2022/09/07 10:57:29;;;;;;;5.40;4.85;;;23.40;99.90;;;;;;5003044;28;20657;-63
2022/09/07 11:00:15;;;;;;;7.70;6.28;;;23.70;99.90;;;;;;5023588;28;20399;-64
2022/09/07 11:02:59;;;;;;;8.45;6.65;;;24.10;99.90;;;;;;5009418;28;20132;-64
2022/09/07 11:05:43;;;;;;;7.05;6.07;;;24.40;99.60;;;;;;5029659;28;20475;-64
2022/09/07 11:08:33;;;;;;;9.88;5.85;;;24.60;98.40;;;;;;5008476;28;20044;-63
2022/09/07 11:11:47;;;;;;;6.63;5.97;;;24.80;98.70;;;;;;5023377;28;20117;-64
2022/09/07 11:14:18;;;;;;;6.80;5.32;;;24.80;98.20;;;;;;4916964;28;20105;-64
2022/09/07 11:17:11;;;;;;;6.88;5.40;;;24.60;97.70;;;;;;5002469;28;20111;-64
2022/09/07 11:19:54;;;;;;;6.30;5.15;;;24.30;97.20;;;;;;5003230;28;20049;-64
2022/09/07 11:22:29;;;;;;;6.38;4.65;;;24.20;97.20;;;;;;5003584;28;20038;-64
2022/09/07 11:25:16;;;;;;;6.85;4.93;;;24.00;97.70;;;;;;5021437;28;20049;-64
2022/09/07 11:27:56;;;;;;;5.97;5.40;;;24.00;97.60;;;;;;5020999;28;20550;-64
2022/09/07 11:30:48;;;;;;;6.18;5.65;;;24.20;97.90;;;;;;4999930;28;20041;-64
2022/09/07 11:33:39;;;;;;;5.90;5.22;;;24.40;97.30;;;;;;5012413;28;20053;-64
2022/09/07 11:36:12;;;;;;;6.45;4.78;;;24.80;97.30;;;;;;5018916;28;20582;-64
2022/09/07 11:39:10;;;;;;;6.32;5.72;;;25.20;96.80;;;;;;5002305;28;20099;-64
2022/09/07 11:41:40;;;;;;;6.53;4.72;;;25.50;95.90;;;;;;5021622;28;20628;-64
2022/09/07 11:44:16;;;;;;;8.00;5.47;;;25.80;95.60;;;;;;5002837;28;20041;-64
2022/09/07 11:46:51;;;;;;;5.13;4.63;;;26.10;95.00;;;;;;5022435;28;20219;-64
2022/09/07 11:49:22;;;;;;;7.05;4.50;;;26.40;94.80;;;;;;5001259;28;20139;-64
2022/09/07 11:51:56;;;;;;;6.32;4.65;;;26.40;93.70;;;;;;4984659;28;20072;-64
2022/09/07 11:54:31;;;;;;;5.18;4.18;;;26.10;92.90;;;;;;4998028;28;20941;-64
2022/09/07 11:57:21;;;;;;;4.38;2.80;;;25.80;93.00;;;;;;5026210;28;20578;-64
2022/09/07 12:00:11;;;;;;;3.85;2.90;;;25.60;93.70;;;;;;5023350;28;20123;-65
2022/09/07 12:03:00;;;;;;;2.47;2.28;;;25.80;93.70;;;;;;5004993;28;20049;-64
2022/09/07 12:05:32;;;;;;;4.65;2.50;;;26.20;93.60;;;;;;5012512;28;20049;-63
2022/09/07 12:08:20;;;;;;;3.38;2.35;;;26.50;92.40;;;;;;5008887;28;20053;-64
2022/09/07 12:11:07;;;;;;;2.85;2.10;;;26.50;91.70;;;;;;5014296;28;20052;-64
2022/09/07 12:13:46;;;;;;;2.78;1.75;;;26.30;91.80;;;;;;5023727;28;20049;-64
2022/09/07 12:16:39;;;;;;;2.33;1.67;;;26.20;91.60;;;;;;4989164;28;20052;-64
2022/09/07 12:19:23;;;;;;;3.08;1.60;;;26.00;91.10;;;;;;5007793;28;20037;-64
2022/09/07 12:21:52;;;;;;;3.45;1.90;;;25.90;90.40;;;;;;5025529;28;20470;-64
2022/09/07 12:24:43;;;;;;;4.20;1.90;;;25.80;90.70;;;;;;5001955;28;20045;-64
2022/09/07 12:27:30;;;;;;;3.42;1.60;;;25.60;90.30;;;;;;5012687;28;20501;-64
2022/09/07 12:29:56;;;;;;;2.25;1.40;;;25.50;90.70;;;;;;5008293;28;20116;-64
2022/09/07 12:32:45;;;;;;;2.90;1.77;;;25.80;90.80;;;;;;5021918;28;20137;-64
2022/09/07 12:35:32;;;;;;;2.55;1.40;;;25.80;90.00;;;;;;4978040;28;20148;-64
2022/09/07 12:38:04;;;;;;;3.15;1.60;;;25.90;90.30;;;;;;5021395;28;20068;-64
2022/09/07 12:40:33;;;;;;;;;;;25.90;90.30;;;;;;5005027;28;20049;-64
2022/09/07 12:43:14;;;;;;;1.67;1.25;;;26.30;91.10;;;;;;5003590;28;19971;-64
2022/09/07 12:45:40;;;;;;;1.95;1.20;;;26.70;90.00;;;;;;5017838;28;20067;-65
2022/09/07 12:48:21;;;;;;;1.52;1.30;;;26.80;89.20;;;;;;5021405;28;20369;-64
2022/09/07 12:51:14;;;;;;;1.58;1.20;;;26.90;88.40;;;;;;5005833;28;20071;-65
2022/09/07 12:53:46;;;;;;;2.13;1.40;;;26.70;86.60;;;;;;5005572;28;20055;-64
2022/09/07 12:56:54;;;;;;;1.77;1.27;;;26.60;86.80;;;;;;5000083;28;20037;-64
2022/09/07 12:59:29;;;;;;;2.38;1.38;;;26.70;86.90;;;;;;4985110;28;20080;-64
2022/09/07 13:02:22;;;;;;;2.20;1.30;;;27.00;85.90;;;;;;4995304;28;20076;-64
2022/09/07 13:05:00;;;;;;;1.48;1.10;;;27.40;85.50;;;;;;5019748;28;20084;-64
2022/09/07 13:07:40;;;;;;;2.53;1.23;;;27.70;85.20;;;;;;5019148;28;20075;-64
2022/09/07 13:10:22;;;;;;;3.03;1.20;;;27.90;82.80;;;;;;5018589;28;20125;-64
2022/09/07 13:12:49;;;;;;;3.15;1.30;;;27.90;82.70;;;;;;5022265;28;20045;-63